sensor_id;sensor_type;location;lat;lon;timestamp;P1;durP1;ratioP1;P2;durP2;ratioP2
23117;SDS011;11728;50.624;6.014;2023-02-04T00:03:14;10.02;;;2.38;;
23117;SDS011;11728;50.624;6.014;2023-02-04T00:08:15;6.15;;;1.58;;
23117;SDS011;11728;50.624;6.014;2023-02-04T00:13:15;5.40;;;1.10;;
23117;SDS011;11728;50.624;6.014;2023-02-04T00:18:15;10.07;;;1.73;;
23117;SDS011;11728;50.624;6.014;2023-02-04T00:23:16;5.20;;;1.15;;
23117;SDS011;11728;50.624;6.014;2023-02-04T00:28:16;5.57;;;0.93;;
23117;SDS011;11728;50.624;6.014;2023-02-04T00:33:17;4.57;;;1.20;;
23117;SDS011;11728;50.624;6.014;2023-02-04T00:38:17;4.90;;;0.87;;
23117;SDS011;11728;50.624;6.014;2023-02-04T00:43:17;4.85;;;0.88;;
23117;SDS011;11728;50.624;6.014;2023-02-04T00:48:18;3.10;;;0.80;;
23117;SDS011;11728;50.624;6.014;2023-02-04T00:53:18;5.10;;;0.90;;
23117;SDS011;11728;50.624;6.014;2023-02-04T00:58:19;3.90;;;0.87;;
23117;SDS011;11728;50.624;6.014;2023-02-04T01:03:19;6.80;;;1.20;;
23117;SDS011;11728;50.624;6.014;2023-02-04T01:08:19;6.43;;;1.50;;
23117;SDS011;11728;50.624;6.014;2023-02-04T01:13:20;5.95;;;1.33;;
23117;SDS011;11728;50.624;6.014;2023-02-04T01:18:20;4.47;;;1.27;;
23117;SDS011;11728;50.624;6.014;2023-02-04T01:23:20;10.80;;;1.65;;
23117;SDS011;11728;50.624;6.014;2023-02-04T01:28:21;5.87;;;1.17;;
23117;SDS011;11728;50.624;6.014;2023-02-04T01:33:21;9.23;;;1.50;;
23117;SDS011;11728;50.624;6.014;2023-02-04T01:38:21;6.60;;;1.40;;
23117;SDS011;11728;50.624;6.014;2023-02-04T01:43:22;7.00;;;1.63;;
23117;SDS011;11728;50.624;6.014;2023-02-04T01:48:22;5.63;;;1.50;;
23117;SDS011;11728;50.624;6.014;2023-02-04T01:53:24;7.32;;;1.58;;
23117;SDS011;11728;50.624;6.014;2023-02-04T01:58:25;6.72;;;1.45;;
23117;SDS011;11728;50.624;6.014;2023-02-04T02:03:27;7.40;;;1.48;;
23117;SDS011;11728;50.624;6.014;2023-02-04T02:08:28;9.52;;;1.70;;
23117;SDS011;11728;50.624;6.014;2023-02-04T02:13:28;10.13;;;1.93;;
23117;SDS011;11728;50.624;6.014;2023-02-04T02:18:29;9.00;;;1.70;;
23117;SDS011;11728;50.624;6.014;2023-02-04T02:28:56;11.55;;;1.90;;
23117;SDS011;11728;50.624;6.014;2023-02-04T02:33:56;10.25;;;1.83;;
23117;SDS011;11728;50.624;6.014;2023-02-04T02:38:57;11.05;;;2.10;;
23117;SDS011;11728;50.624;6.014;2023-02-04T02:43:59;10.80;;;2.33;;
23117;SDS011;11728;50.624;6.014;2023-02-04T02:48:59;9.38;;;1.98;;
23117;SDS011;11728;50.624;6.014;2023-02-04T02:54:00;9.00;;;2.03;;
23117;SDS011;11728;50.624;6.014;2023-02-04T02:59:12;10.47;;;2.43;;
23117;SDS011;11728;50.624;6.014;2023-02-04T03:04:14;11.93;;;2.25;;
23117;SDS011;11728;50.624;6.014;2023-02-04T03:09:18;11.57;;;2.20;;
23117;SDS011;11728;50.624;6.014;2023-02-04T03:14:19;10.20;;;1.92;;
23117;SDS011;11728;50.624;6.014;2023-02-04T03:19:24;8.27;;;1.95;;
23117;SDS011;11728;50.624;6.014;2023-02-04T03:24:25;7.35;;;1.67;;
23117;SDS011;11728;50.624;6.014;2023-02-04T03:29:26;13.15;;;2.15;;
23117;SDS011;11728;50.624;6.014;2023-02-04T03:34:26;14.33;;;1.93;;
23117;SDS011;11728;50.624;6.014;2023-02-04T03:39:26;8.13;;;2.00;;
23117;SDS011;11728;50.624;6.014;2023-02-04T03:44:26;11.77;;;2.40;;
23117;SDS011;11728;50.624;6.014;2023-02-04T03:49:27;11.13;;;2.13;;
23117;SDS011;11728;50.624;6.014;2023-02-04T03:54:27;15.98;;;2.20;;
23117;SDS011;11728;50.624;6.014;2023-02-04T03:59:28;7.90;;;2.07;;
23117;SDS011;11728;50.624;6.014;2023-02-04T04:04:28;10.07;;;1.80;;
23117;SDS011;11728;50.624;6.014;2023-02-04T04:09:28;8.18;;;2.10;;
23117;SDS011;11728;50.624;6.014;2023-02-04T04:14:29;11.80;;;2.07;;
23117;SDS011;11728;50.624;6.014;2023-02-04T04:19:29;8.07;;;1.98;;
23117;SDS011;11728;50.624;6.014;2023-02-04T04:24:31;11.23;;;2.67;;
23117;SDS011;11728;50.624;6.014;2023-02-04T04:29:32;8.80;;;2.10;;
23117;SDS011;11728;50.624;6.014;2023-02-04T04:34:33;9.43;;;2.15;;
23117;SDS011;11728;50.624;6.014;2023-02-04T04:39:33;11.20;;;2.03;;
23117;SDS011;11728;50.624;6.014;2023-02-04T04:44:33;9.70;;;2.07;;
23117;SDS011;11728;50.624;6.014;2023-02-04T04:49:34;11.05;;;2.53;;
23117;SDS011;11728;50.624;6.014;2023-02-04T04:54:35;38.37;;;3.63;;
23117;SDS011;11728;50.624;6.014;2023-02-04T04:59:35;33.88;;;3.60;;
23117;SDS011;11728;50.624;6.014;2023-02-04T05:04:35;22.60;;;3.00;;
23117;SDS011;11728;50.624;6.014;2023-02-04T05:09:36;7.03;;;2.47;;
23117;SDS011;11728;50.624;6.014;2023-02-04T05:14:36;7.03;;;1.50;;
23117;SDS011;11728;50.624;6.014;2023-02-04T05:19:37;8.90;;;2.15;;
23117;SDS011;11728;50.624;6.014;2023-02-04T05:24:37;9.63;;;1.97;;
23117;SDS011;11728;50.624;6.014;2023-02-04T05:29:37;9.20;;;2.33;;
23117;SDS011;11728;50.624;6.014;2023-02-04T05:34:38;6.40;;;1.75;;
23117;SDS011;11728;50.624;6.014;2023-02-04T05:39:38;11.80;;;2.73;;
23117;SDS011;11728;50.624;6.014;2023-02-04T05:44:38;9.63;;;1.87;;
23117;SDS011;11728;50.624;6.014;2023-02-04T05:49:39;8.00;;;2.10;;
23117;SDS011;11728;50.624;6.014;2023-02-04T05:54:39;12.48;;;3.03;;
23117;SDS011;11728;50.624;6.014;2023-02-04T05:59:40;13.20;;;2.63;;
23117;SDS011;11728;50.624;6.014;2023-02-04T06:04:40;12.67;;;2.30;;
23117;SDS011;11728;50.624;6.014;2023-02-04T06:09:40;7.77;;;2.30;;
23117;SDS011;11728;50.624;6.014;2023-02-04T06:14:41;7.70;;;1.70;;
23117;SDS011;11728;50.624;6.014;2023-02-04T06:19:41;9.80;;;2.22;;
23117;SDS011;11728;50.624;6.014;2023-02-04T06:24:41;12.13;;;3.50;;
23117;SDS011;11728;50.624;6.014;2023-02-04T06:29:42;26.63;;;5.20;;
23117;SDS011;11728;50.624;6.014;2023-02-04T06:34:42;54.63;;;4.80;;
23117;SDS011;11728;50.624;6.014;2023-02-04T06:39:42;114.97;;;8.50;;
23117;SDS011;11728;50.624;6.014;2023-02-04T06:44:43;21.90;;;3.15;;
23117;SDS011;11728;50.624;6.014;2023-02-04T06:49:44;11.45;;;2.90;;
23117;SDS011;11728;50.624;6.014;2023-02-04T06:54:44;8.77;;;3.17;;
23117;SDS011;11728;50.624;6.014;2023-02-04T06:59:45;9.57;;;3.92;;
23117;SDS011;11728;50.624;6.014;2023-02-04T07:04:46;12.68;;;3.75;;
23117;SDS011;11728;50.624;6.014;2023-02-04T07:09:48;6.95;;;3.35;;
23117;SDS011;11728;50.624;6.014;2023-02-04T07:14:48;8.93;;;3.03;;
23117;SDS011;11728;50.624;6.014;2023-02-04T07:19:49;10.25;;;3.70;;
23117;SDS011;11728;50.624;6.014;2023-02-04T07:24:49;13.15;;;5.07;;
23117;SDS011;11728;50.624;6.014;2023-02-04T07:29:51;13.13;;;4.30;;
23117;SDS011;11728;50.624;6.014;2023-02-04T07:34:51;15.80;;;4.80;;
23117;SDS011;11728;50.624;6.014;2023-02-04T07:39:51;10.90;;;4.33;;
23117;SDS011;11728;50.624;6.014;2023-02-04T07:44:52;22.07;;;5.80;;
23117;SDS011;11728;50.624;6.014;2023-02-04T07:49:52;15.65;;;6.85;;
23117;SDS011;11728;50.624;6.014;2023-02-04T07:54:55;16.00;;;6.68;;
23117;SDS011;11728;50.624;6.014;2023-02-04T07:59:56;19.60;;;6.70;;
23117;SDS011;11728;50.624;6.014;2023-02-04T08:04:56;16.45;;;6.32;;
23117;SDS011;11728;50.624;6.014;2023-02-04T08:09:57;19.02;;;7.05;;
23117;SDS011;11728;50.624;6.014;2023-02-04T08:14:57;19.33;;;7.93;;
23117;SDS011;11728;50.624;6.014;2023-02-04T08:20:00;29.58;;;11.18;;
23117;SDS011;11728;50.624;6.014;2023-02-04T08:25:01;33.97;;;12.75;;
23117;SDS011;11728;50.624;6.014;2023-02-04T08:30:04;39.65;;;14.52;;
23117;SDS011;11728;50.624;6.014;2023-02-04T08:35:05;41.17;;;13.93;;
23117;SDS011;11728;50.624;6.014;2023-02-04T08:40:06;36.80;;;13.75;;
23117;SDS011;11728;50.624;6.014;2023-02-04T08:45:07;36.80;;;13.82;;
23117;SDS011;11728;50.624;6.014;2023-02-04T08:50:09;35.90;;;13.30;;
23117;SDS011;11728;50.624;6.014;2023-02-04T08:55:10;32.35;;;13.85;;
23117;SDS011;11728;50.624;6.014;2023-02-04T09:00:10;34.23;;;13.43;;
23117;SDS011;11728;50.624;6.014;2023-02-04T09:05:11;31.90;;;13.32;;
23117;SDS011;11728;50.624;6.014;2023-02-04T09:10:11;31.27;;;12.37;;
23117;SDS011;11728;50.624;6.014;2023-02-04T09:15:12;35.65;;;13.13;;
23117;SDS011;11728;50.624;6.014;2023-02-04T09:20:12;32.17;;;12.05;;
23117;SDS011;11728;50.624;6.014;2023-02-04T09:25:13;35.03;;;11.30;;
23117;SDS011;11728;50.624;6.014;2023-02-04T09:30:13;28.63;;;11.35;;
23117;SDS011;11728;50.624;6.014;2023-02-04T09:35:14;30.08;;;11.27;;
23117;SDS011;11728;50.624;6.014;2023-02-04T09:40:14;30.15;;;11.52;;
23117;SDS011;11728;50.624;6.014;2023-02-04T09:45:18;29.65;;;11.32;;
23117;SDS011;11728;50.624;6.014;2023-02-04T09:50:23;27.88;;;10.52;;
23117;SDS011;11728;50.624;6.014;2023-02-04T09:55:31;31.92;;;12.25;;
23117;SDS011;11728;50.624;6.014;2023-02-04T10:00:34;24.55;;;8.07;;
23117;SDS011;11728;50.624;6.014;2023-02-04T10:05:34;26.77;;;11.10;;
23117;SDS011;11728;50.624;6.014;2023-02-04T10:10:36;34.50;;;12.65;;
23117;SDS011;11728;50.624;6.014;2023-02-04T10:15:36;31.75;;;12.00;;
23117;SDS011;11728;50.624;6.014;2023-02-04T10:20:37;27.55;;;12.05;;
23117;SDS011;11728;50.624;6.014;2023-02-04T10:25:39;28.52;;;11.27;;
23117;SDS011;11728;50.624;6.014;2023-02-04T10:30:41;28.45;;;10.23;;
23117;SDS011;11728;50.624;6.014;2023-02-04T10:35:46;28.38;;;10.27;;
23117;SDS011;11728;50.624;6.014;2023-02-04T10:41:02;29.33;;;10.48;;
23117;SDS011;11728;50.624;6.014;2023-02-04T10:46:04;27.77;;;9.98;;
23117;SDS011;11728;50.624;6.014;2023-02-04T10:51:04;28.73;;;10.27;;
23117;SDS011;11728;50.624;6.014;2023-02-04T10:56:10;28.65;;;10.10;;
23117;SDS011;11728;50.624;6.014;2023-02-04T11:01:15;26.83;;;9.27;;
23117;SDS011;11728;50.624;6.014;2023-02-04T11:06:24;27.45;;;9.00;;
23117;SDS011;11728;50.624;6.014;2023-02-04T11:11:25;26.63;;;9.13;;
23117;SDS011;11728;50.624;6.014;2023-02-04T11:16:26;26.33;;;8.77;;
23117;SDS011;11728;50.624;6.014;2023-02-04T11:26:36;24.53;;;8.17;;
23117;SDS011;11728;50.624;6.014;2023-02-04T11:31:44;26.02;;;8.15;;
23117;SDS011;11728;50.624;6.014;2023-02-04T11:37:02;21.58;;;7.95;;
23117;SDS011;11728;50.624;6.014;2023-02-04T11:47:22;28.50;;;8.85;;
23117;SDS011;11728;50.624;6.014;2023-02-04T11:52:24;27.15;;;8.10;;
23117;SDS011;11728;50.624;6.014;2023-02-04T11:57:25;26.13;;;8.02;;
23117;SDS011;11728;50.624;6.014;2023-02-04T12:02:26;31.33;;;8.57;;
23117;SDS011;11728;50.624;6.014;2023-02-04T12:07:27;22.90;;;9.35;;
23117;SDS011;11728;50.624;6.014;2023-02-04T12:12:29;23.25;;;7.97;;
23117;SDS011;11728;50.624;6.014;2023-02-04T12:17:30;20.83;;;7.80;;
23117;SDS011;11728;50.624;6.014;2023-02-04T12:22:30;24.55;;;8.50;;
23117;SDS011;11728;50.624;6.014;2023-02-04T12:27:30;23.13;;;11.53;;
23117;SDS011;11728;50.624;6.014;2023-02-04T12:32:31;26.85;;;8.60;;
23117;SDS011;11728;50.624;6.014;2023-02-04T12:37:34;22.27;;;9.10;;
23117;SDS011;11728;50.624;6.014;2023-02-04T12:42:34;22.02;;;8.05;;
23117;SDS011;11728;50.624;6.014;2023-02-04T12:47:35;24.10;;;7.72;;
23117;SDS011;11728;50.624;6.014;2023-02-04T12:52:35;21.20;;;6.40;;
23117;SDS011;11728;50.624;6.014;2023-02-04T12:57:36;18.67;;;5.93;;
23117;SDS011;11728;50.624;6.014;2023-02-04T13:02:37;15.30;;;5.20;;
23117;SDS011;11728;50.624;6.014;2023-02-04T13:07:38;20.20;;;5.30;;
23117;SDS011;11728;50.624;6.014;2023-02-04T13:12:39;17.67;;;5.28;;
23117;SDS011;11728;50.624;6.014;2023-02-04T13:17:40;19.60;;;6.93;;
23117;SDS011;11728;50.624;6.014;2023-02-04T13:22:40;25.40;;;6.97;;
23117;SDS011;11728;50.624;6.014;2023-02-04T13:27:41;22.30;;;6.68;;
23117;SDS011;11728;50.624;6.014;2023-02-04T13:32:41;21.97;;;7.33;;
23117;SDS011;11728;50.624;6.014;2023-02-04T13:37:42;19.98;;;7.13;;
23117;SDS011;11728;50.624;6.014;2023-02-04T13:42:43;24.25;;;7.45;;
23117;SDS011;11728;50.624;6.014;2023-02-04T13:47:43;15.45;;;6.18;;
23117;SDS011;11728;50.624;6.014;2023-02-04T13:52:44;15.00;;;6.30;;
23117;SDS011;11728;50.624;6.014;2023-02-04T13:57:44;23.50;;;7.93;;
23117;SDS011;11728;50.624;6.014;2023-02-04T14:02:44;16.23;;;6.50;;
23117;SDS011;11728;50.624;6.014;2023-02-04T14:07:45;17.27;;;5.93;;
23117;SDS011;11728;50.624;6.014;2023-02-04T14:12:45;18.03;;;7.00;;
23117;SDS011;11728;50.624;6.014;2023-02-04T14:17:46;17.70;;;7.45;;
23117;SDS011;11728;50.624;6.014;2023-02-04T14:22:46;18.25;;;7.75;;
23117;SDS011;11728;50.624;6.014;2023-02-04T14:27:46;20.83;;;7.57;;
23117;SDS011;11728;50.624;6.014;2023-02-04T14:32:47;17.08;;;7.53;;
23117;SDS011;11728;50.624;6.014;2023-02-04T14:37:47;22.90;;;9.33;;
23117;SDS011;11728;50.624;6.014;2023-02-04T14:42:48;23.17;;;10.15;;
23117;SDS011;11728;50.624;6.014;2023-02-04T14:47:48;27.17;;;10.32;;
23117;SDS011;11728;50.624;6.014;2023-02-04T14:52:50;28.50;;;9.80;;
23117;SDS011;11728;50.624;6.014;2023-02-04T14:57:51;23.63;;;9.02;;
23117;SDS011;11728;50.624;6.014;2023-02-04T15:02:52;27.08;;;9.82;;
23117;SDS011;11728;50.624;6.014;2023-02-04T15:07:52;24.55;;;9.45;;
23117;SDS011;11728;50.624;6.014;2023-02-04T15:12:53;24.47;;;8.77;;
23117;SDS011;11728;50.624;6.014;2023-02-04T15:17:54;22.77;;;9.25;;
23117;SDS011;11728;50.624;6.014;2023-02-04T15:22:54;26.13;;;10.67;;
23117;SDS011;11728;50.624;6.014;2023-02-04T15:27:55;20.75;;;6.38;;
23117;SDS011;11728;50.624;6.014;2023-02-04T15:32:55;20.57;;;7.37;;
23117;SDS011;11728;50.624;6.014;2023-02-04T15:37:56;20.47;;;7.33;;
23117;SDS011;11728;50.624;6.014;2023-02-04T15:42:56;17.93;;;6.60;;
23117;SDS011;11728;50.624;6.014;2023-02-04T15:47:56;21.80;;;7.87;;
23117;SDS011;11728;50.624;6.014;2023-02-04T15:52:57;17.00;;;6.63;;
23117;SDS011;11728;50.624;6.014;2023-02-04T15:57:57;26.47;;;8.43;;
23117;SDS011;11728;50.624;6.014;2023-02-04T16:02:57;20.63;;;9.00;;
23117;SDS011;11728;50.624;6.014;2023-02-04T16:20:10;29.42;;;9.35;;
23117;SDS011;11728;50.624;6.014;2023-02-04T16:25:11;26.42;;;10.20;;
23117;SDS011;11728;50.624;6.014;2023-02-04T16:30:11;27.80;;;10.00;;
23117;SDS011;11728;50.624;6.014;2023-02-04T16:35:12;26.40;;;11.38;;
23117;SDS011;11728;50.624;6.014;2023-02-04T16:40:13;25.02;;;11.25;;
23117;SDS011;11728;50.624;6.014;2023-02-04T16:45:14;31.30;;;13.30;;
23117;SDS011;11728;50.624;6.014;2023-02-04T16:50:14;32.08;;;13.25;;
23117;SDS011;11728;50.624;6.014;2023-02-04T16:55:15;31.90;;;13.70;;
23117;SDS011;11728;50.624;6.014;2023-02-04T17:00:15;32.20;;;13.10;;
23117;SDS011;11728;50.624;6.014;2023-02-04T17:05:16;33.47;;;14.60;;
23117;SDS011;11728;50.624;6.014;2023-02-04T17:10:16;35.75;;;16.98;;
23117;SDS011;11728;50.624;6.014;2023-02-04T17:15:37;37.03;;;13.75;;
23117;SDS011;11728;50.624;6.014;2023-02-04T17:20:39;33.10;;;15.03;;
23117;SDS011;11728;50.624;6.014;2023-02-04T17:25:39;32.53;;;16.00;;
23117;SDS011;11728;50.624;6.014;2023-02-04T17:30:39;36.80;;;15.27;;
23117;SDS011;11728;50.624;6.014;2023-02-04T17:35:40;35.65;;;15.55;;
23117;SDS011;11728;50.624;6.014;2023-02-04T17:40:40;29.53;;;14.63;;
23117;SDS011;11728;50.624;6.014;2023-02-04T17:45:41;47.88;;;19.20;;
23117;SDS011;11728;50.624;6.014;2023-02-04T17:50:42;34.20;;;12.95;;
23117;SDS011;11728;50.624;6.014;2023-02-04T17:55:42;46.08;;;22.35;;
23117;SDS011;11728;50.624;6.014;2023-02-04T18:00:43;50.78;;;21.42;;
23117;SDS011;11728;50.624;6.014;2023-02-04T18:05:46;43.00;;;21.92;;
23117;SDS011;11728;50.624;6.014;2023-02-04T18:10:48;32.10;;;15.15;;
23117;SDS011;11728;50.624;6.014;2023-02-04T18:15:57;25.77;;;10.32;;
23117;SDS011;11728;50.624;6.014;2023-02-04T18:21:00;25.43;;;10.70;;
23117;SDS011;11728;50.624;6.014;2023-02-04T18:26:17;32.70;;;12.73;;
23117;SDS011;11728;50.624;6.014;2023-02-04T18:36:27;32.88;;;13.27;;
23117;SDS011;11728;50.624;6.014;2023-02-04T18:41:31;28.55;;;12.80;;
23117;SDS011;11728;50.624;6.014;2023-02-04T18:46:45;36.10;;;14.73;;
23117;SDS011;11728;50.624;6.014;2023-02-04T18:51:46;31.33;;;14.23;;
23117;SDS011;11728;50.624;6.014;2023-02-04T18:56:47;42.13;;;19.40;;
23117;SDS011;11728;50.624;6.014;2023-02-04T19:01:48;34.10;;;16.17;;
23117;SDS011;11728;50.624;6.014;2023-02-04T19:06:48;34.05;;;15.25;;
23117;SDS011;11728;50.624;6.014;2023-02-04T19:11:52;35.30;;;16.35;;
23117;SDS011;11728;50.624;6.014;2023-02-04T19:16:57;36.47;;;16.02;;
23117;SDS011;11728;50.624;6.014;2023-02-04T19:22:23;29.38;;;14.38;;
23117;SDS011;11728;50.624;6.014;2023-02-04T19:27:31;47.33;;;22.48;;
23117;SDS011;11728;50.624;6.014;2023-02-04T19:32:38;37.70;;;16.08;;
23117;SDS011;11728;50.624;6.014;2023-02-04T19:37:55;31.83;;;13.55;;
23117;SDS011;11728;50.624;6.014;2023-02-04T19:43:18;30.75;;;13.55;;
23117;SDS011;11728;50.624;6.014;2023-02-04T19:48:32;37.53;;;16.92;;
23117;SDS011;11728;50.624;6.014;2023-02-04T19:53:34;32.10;;;14.27;;
23117;SDS011;11728;50.624;6.014;2023-02-04T19:58:41;37.20;;;14.25;;
23117;SDS011;11728;50.624;6.014;2023-02-04T20:03:43;35.45;;;13.98;;
23117;SDS011;11728;50.624;6.014;2023-02-04T20:08:44;34.53;;;15.02;;
23117;SDS011;11728;50.624;6.014;2023-02-04T20:13:47;35.70;;;18.23;;
23117;SDS011;11728;50.624;6.014;2023-02-04T20:18:53;27.42;;;14.15;;
23117;SDS011;11728;50.624;6.014;2023-02-04T20:23:54;35.85;;;17.02;;
23117;SDS011;11728;50.624;6.014;2023-02-04T20:28:54;32.70;;;17.77;;
23117;SDS011;11728;50.624;6.014;2023-02-04T20:33:55;41.42;;;20.88;;
23117;SDS011;11728;50.624;6.014;2023-02-04T20:44:11;28.13;;;14.75;;
23117;SDS011;11728;50.624;6.014;2023-02-04T20:49:17;29.17;;;16.08;;
23117;SDS011;11728;50.624;6.014;2023-02-04T20:54:22;30.40;;;14.50;;
23117;SDS011;11728;50.624;6.014;2023-02-04T20:59:29;26.10;;;14.13;;
23117;SDS011;11728;50.624;6.014;2023-02-04T21:04:33;28.73;;;14.73;;
23117;SDS011;11728;50.624;6.014;2023-02-04T21:09:37;29.30;;;15.48;;
23117;SDS011;11728;50.624;6.014;2023-02-04T21:14:39;27.50;;;14.52;;
23117;SDS011;11728;50.624;6.014;2023-02-04T21:19:39;25.17;;;15.25;;
23117;SDS011;11728;50.624;6.014;2023-02-04T21:24:40;26.27;;;14.63;;
23117;SDS011;11728;50.624;6.014;2023-02-04T21:29:43;25.58;;;15.32;;
23117;SDS011;11728;50.624;6.014;2023-02-04T21:34:43;30.90;;;16.95;;
23117;SDS011;11728;50.624;6.014;2023-02-04T21:39:44;35.00;;;17.00;;
23117;SDS011;11728;50.624;6.014;2023-02-04T21:44:44;34.83;;;17.93;;
23117;SDS011;11728;50.624;6.014;2023-02-04T21:49:44;29.40;;;16.02;;
23117;SDS011;11728;50.624;6.014;2023-02-04T21:54:45;28.67;;;17.10;;
23117;SDS011;11728;50.624;6.014;2023-02-04T21:59:45;33.08;;;18.27;;
23117;SDS011;11728;50.624;6.014;2023-02-04T22:04:47;33.92;;;19.33;;
23117;SDS011;11728;50.624;6.014;2023-02-04T22:09:47;33.17;;;20.50;;
23117;SDS011;11728;50.624;6.014;2023-02-04T22:14:49;32.17;;;18.33;;
23117;SDS011;11728;50.624;6.014;2023-02-04T22:20:08;36.25;;;19.17;;
23117;SDS011;11728;50.624;6.014;2023-02-04T22:25:10;37.55;;;19.83;;
23117;SDS011;11728;50.624;6.014;2023-02-04T22:30:12;34.70;;;20.40;;
23117;SDS011;11728;50.624;6.014;2023-02-04T22:35:14;35.88;;;22.30;;
23117;SDS011;11728;50.624;6.014;2023-02-04T22:40:15;31.98;;;20.38;;
23117;SDS011;11728;50.624;6.014;2023-02-04T22:45:15;32.88;;;21.27;;
23117;SDS011;11728;50.624;6.014;2023-02-04T22:50:16;34.13;;;20.70;;
23117;SDS011;11728;50.624;6.014;2023-02-04T22:55:16;34.45;;;20.02;;
23117;SDS011;11728;50.624;6.014;2023-02-04T23:00:17;33.17;;;21.17;;
23117;SDS011;11728;50.624;6.014;2023-02-04T23:05:17;39.80;;;24.67;;
23117;SDS011;11728;50.624;6.014;2023-02-04T23:10:17;38.03;;;24.17;;
23117;SDS011;11728;50.624;6.014;2023-02-04T23:15:18;42.83;;;25.45;;
23117;SDS011;11728;50.624;6.014;2023-02-04T23:20:18;41.90;;;25.30;;
23117;SDS011;11728;50.624;6.014;2023-02-04T23:25:19;43.83;;;25.23;;
23117;SDS011;11728;50.624;6.014;2023-02-04T23:30:20;46.55;;;23.13;;
23117;SDS011;11728;50.624;6.014;2023-02-04T23:35:20;38.58;;;22.77;;
23117;SDS011;11728;50.624;6.014;2023-02-04T23:40:21;39.03;;;23.38;;
23117;SDS011;11728;50.624;6.014;2023-02-04T23:45:21;44.03;;;24.88;;
23117;SDS011;11728;50.624;6.014;2023-02-04T23:50:22;38.78;;;22.33;;
23117;SDS011;11728;50.624;6.014;2023-02-04T23:55:22;40.40;;;22.83;;
